CPX261 Details

Departure: Kansas City International Airport (KMCI)
Arrival: General Edward Lawrence Logan International Airport (KBOS) at N/A
Route: LAKES2 SPI ROD KLYNE Q29 JHW Q82 PONCT JFUND2
Notes: METROAIR CARGO SUPPORT


Current Weather Information
KMCI 171653Z 20016G21KT 10SM SCT140 BKN220 27/21 A2987 RMK AO2 SLP103 T02720211 $
KBOS 171722Z 11009KT 10SM FEW010 BKN015 OVC022 22/18 A3007 RMK AO2 T02220183